CheckWX is a tool to help pilots better visualize weather data.  It is not intended as a substitute for an official pre-flight weather briefing.

05:58:40 UTC

KMCW TAF
Mason City Municipal Airport
Mason City, Iowa, USA
KMCW 250520Z 2506/2606 01008KT P6SM SCT060 FM251000 03007KT 6SM BR BKN030 FM251500 06005KT P6SM SCT025 FM260100 VRB03KT P6SM FEW130

Mar-25@
06:00 UTC

Mar-25 @ 06:00 UTC

Mar-25@
10:00 UTC

Mar-25 @ 10:00 UTC

KMCW 250520Z 2506/2606 01008KT P6SM SCT060
Wind
  • 010° at 8 KTS
Cloud Levels
  • Scattered at 6,000' AGL

Mar-25@
10:00 UTC

Mar-25 @ 10:00 UTC

Mar-25@
15:00 UTC

Mar-25 @ 15:00 UTC

FM251000 03007KT 6SM BR BKN030

From

From Standard forecast or significant change

Wind
  • 030° at 7 KTS
Conditions
Mist
Cloud Levels
  • Broken at 3,000' AGL

Mar-25@
15:00 UTC

Mar-25 @ 15:00 UTC

Mar-26@
01:00 UTC

Mar-26 @ 01:00 UTC

FM251500 06005KT P6SM SCT025

From

From Standard forecast or significant change

Wind
  • 060° at 5 KTS
Cloud Levels
  • Scattered at 2,500' AGL

Mar-26@
01:00 UTC

Mar-26 @ 01:00 UTC

Mar-26@
06:00 UTC

Mar-26 @ 06:00 UTC

FM260100 VRB03KT P6SM FEW130

From

From Standard forecast or significant change

Wind
  • Variable at 3 KTS
Cloud Levels
  • Few at 13,000' AGL